Flight Track Log - Related Links

Times and Time Zones

All times are in EDT time to prevent confusion due to time zone crossing. See the SKW5476 flight status page for this flight to view local times or setup timezone preferences in your user account.

Time Position Orientation Groundspeed Altitude Reporting Facility
EDT Latitude Longitude Course Direction KTS MPH feet Rate Location/Type
Thu 03:08:07 PM 37.6500 -122.3667 North 143 165 1,200  Level Northern TRACON
Thu 03:08:54 PM 37.6761 -122.3656 North 179 206 1,900 1,500 Climbing Oakland Center
Thu 03:09:55 PM 37.7278 -122.3608 North 184 212 3,900 1,902 Climbing Oakland Center
Thu 03:10:57 PM 37.7753 -122.3789 343° North 182 209 5,800 1,902 Climbing Oakland Center
Thu 03:11:00 PM 37.8260 -122.3654 353° North  Level FlightAware
Thu 03:11:58 PM 37.8381 -122.3719 North 189 217 7,800  Level Oakland Center
Thu 03:12:00 PM 37.8959 -122.3709 345° North  Level FlightAware
Thu 03:13:00 PM 37.9583 -122.3667 North  Level FlightAware
Thu 03:13:00 PM 37.8922 -122.3808 353° North 193 222 9,600  Level Oakland Center
Thu 03:14:01 PM 37.9467 -122.3825 359° North 198 228 11,400 1,610 Climbing Oakland Center
Thu 03:15:03 PM 38.0022 -122.3808 North 202 232 12,900 1,427 Climbing Oakland Center
Thu 03:17:06 PM 38.1136 -122.3642 North 202 232 15,800 1,337 Climbing Oakland Center
Thu 03:18:07 PM 38.1794 -122.3517 North 201 231 17,000 1,122 Climbing Oakland Center
Thu 03:19:09 PM 38.2353 -122.3411 North 204 235 18,100 1,024 Climbing Oakland Center
Thu 03:20:10 PM 38.2919 -122.3303 North 206 237 19,100 927 Climbing Oakland Center
Thu 03:21:12 PM 38.3494 -122.3203 North 209 241 20,000 927 Climbing Oakland Center
Thu 03:22:13 PM 38.4075 -122.3114 North 209 241 21,000 934 Climbing Oakland Center
Thu 03:23:14 PM 38.4628 -122.2992 10° North 205 236 21,900 732 Climbing Oakland Center
Thu 03:24:16 PM 38.5211 -122.2894 North 212 244 22,500 634 Climbing Oakland Center
Thu 03:25:17 PM 38.5800 -122.2781 North 214 246 23,200 683 Climbing Oakland Center
Thu 03:26:19 PM 38.6517 -122.2658 North 217 250 23,900 341 Climbing Oakland Center
Thu 03:27:20 PM 38.7075 -122.2558 North 227 261 23,900 49 Level Oakland Center
Thu 03:28:22 PM 38.7739 -122.2436 North 238 274 24,000 49 Climbing Oakland Center
Thu 03:29:23 PM 38.8378 -122.2319 North 231 266 24,000  Level Oakland Center
Thu 03:30:25 PM 38.9031 -122.2200 North 238 274 24,000  Level Oakland Center
Thu 03:31:26 PM 38.9789 -122.2067 North 229 264 24,000  Level Oakland Center
Thu 03:32:27 PM 39.0431 -122.1939 North 231 266 24,000  Level Oakland Center
Thu 03:33:29 PM 39.1050 -122.1822 North 226 260 24,000  Level Oakland Center
Thu 03:34:30 PM 39.1686 -122.1719 North 229 264 24,000  Level Oakland Center
Thu 03:35:32 PM 39.2311 -122.1597 North 226 260 24,000  Level Oakland Center
Thu 03:36:33 PM 39.2936 -122.1478 North 225 259 24,000  Level Oakland Center
Thu 03:37:35 PM 39.3564 -122.1369 North 227 261 24,000  Level Oakland Center
Thu 03:38:36 PM 39.4181 -122.1242 North 225 259 24,000  Level Oakland Center
Thu 03:39:38 PM 39.4878 -122.1097 North 226 260 24,000  Level Oakland Center
Thu 03:40:39 PM 39.5483 -122.0994 North 222 255 24,000  Level Oakland Center
Thu 03:41:41 PM 39.6100 -122.0878 North 225 259 24,000  Level Oakland Center
Thu 03:42:42 PM 39.6719 -122.0758 North 225 259 24,000  Level Oakland Center
Thu 03:43:44 PM 39.7325 -122.0653 North 222 255 24,000  Level Oakland Center
Thu 03:44:45 PM 39.8067 -122.0503 North 226 260 24,000  Level Oakland Center
Thu 03:45:47 PM 39.8672 -122.0389 North 221 254 24,000  Level Oakland Center
Thu 03:46:48 PM 39.9283 -122.0278 North 223 257 24,000  Level Oakland Center
Thu 03:47:50 PM 39.9889 -122.0167 North 221 254 24,000  Level Oakland Center
Thu 03:48:51 PM 40.0497 -122.0039 North 224 258 24,000  Level Oakland Center
Thu 03:49:53 PM 40.1117 -121.9925 North 227 261 24,000  Level Oakland Center
Thu 03:50:54 PM 40.1736 -121.9803 North 227 261 24,000  Level Oakland Center
Thu 03:51:56 PM 40.2478 -121.9664 North 227 261 24,000  Level Oakland Center
Thu 03:52:57 PM 40.3097 -121.9553 North 226 260 24,000  Level Oakland Center
Thu 03:53:59 PM 40.3722 -121.9425 North 227 261 24,000  Level Oakland Center
Thu 03:55:00 PM 40.4356 -121.9306 North 229 264 24,000  Level Oakland Center
Thu 03:56:02 PM 40.4992 -121.9183 North 231 266 24,000  Level Oakland Center
Thu 03:57:03 PM 40.5614 -121.9072 North 229 264 24,000  Level Oakland Center
Thu 03:58:05 PM 40.6372 -121.8922 North 229 264 24,000  Level Oakland Center
Thu 03:59:06 PM 40.6994 -121.8792 North 228 262 24,000  Level Oakland Center
Thu 04:00:08 PM 40.7628 -121.8678 North 230 265 24,000  Level Oakland Center
Thu 04:01:09 PM 40.8261 -121.8556 North 230 265 24,000  Level Oakland Center
Thu 04:02:11 PM 40.8889 -121.8428 North 229 264 24,000  Level Oakland Center
Thu 04:03:13 PM 40.9525 -121.8317 North 231 266 24,000  Level Oakland Center
Thu 04:04:14 PM 41.0139 -121.8181 North 225 259 24,000  Level Oakland Center
Thu 04:05:16 PM 41.0750 -121.8061 North 224 258 24,000 -47 Level Oakland Center
Thu 04:06:23 PM 41.1489 -121.7947 North 223 257 23,900 -47 Descending Seattle Center
Thu 04:07:24 PM 41.2064 -121.7833 North 221 254 23,900  Level Seattle Center
Thu 04:08:25 PM 41.2669 -121.7719 North 220 253 23,900 49 Level Seattle Center
Thu 04:09:26 PM 41.3264 -121.7592 North 218 251 24,000 49 Climbing Seattle Center
Thu 04:10:27 PM 41.3869 -121.7483 North 220 253 24,000 -49 Level Seattle Center
Thu 04:11:28 PM 41.4592 -121.7336 North 219 252 23,900 -49 Descending Seattle Center
Thu 04:12:29 PM 41.5189 -121.7214 North 218 251 23,900  Level Seattle Center
Thu 04:13:30 PM 41.5778 -121.7089 North 216 249 23,900  Level Seattle Center
Thu 04:14:31 PM 41.6383 -121.6975 North 218 251 23,900  Level Seattle Center
Thu 04:15:32 PM 41.6978 -121.6861 North 218 251 23,900  Level Seattle Center
Thu 04:16:33 PM 41.7569 -121.6739 North 215 247 23,900  Level Seattle Center
Thu 04:17:34 PM 41.8161 -121.6619 North 216 249 23,900  Level Seattle Center
Thu 04:18:35 PM 41.8750 -121.6503 North 216 249 23,900  Level Seattle Center
Thu 04:19:36 PM 41.9336 -121.6383 North 215 247 23,900  Level Seattle Center
Thu 04:20:37 PM 41.9919 -121.6253 North 216 249 23,900  Level Seattle Center
Thu 04:21:38 PM 42.0628 -121.6114 North 218 251 23,900  Level Seattle Center
Thu 04:22:39 PM 42.1219 -121.5983 North 217 250 23,900  Level Seattle Center
Thu 04:23:40 PM 42.1811 -121.5861 North 217 250 23,900  Level Seattle Center
Thu 04:24:41 PM 42.2400 -121.5758 North 216 249 23,900  Level Seattle Center
Thu 04:25:42 PM 42.2997 -121.5622 10° North 220 253 23,900  Level Seattle Center
Thu 04:26:43 PM 42.3603 -121.5506 North 221 254 23,900  Level Seattle Center
Thu 04:27:44 PM 42.4197 -121.5381 North 219 252 23,900  Level Seattle Center
Thu 04:28:45 PM 42.4806 -121.5253 North 220 253 23,900  Level Seattle Center
Thu 04:29:46 PM 42.5394 -121.5128 North 216 249 23,900 -344 Level Seattle Center
Thu 04:30:47 PM 42.6028 -121.4997 North 224 258 23,200 -885 Descending Seattle Center
Thu 04:31:48 PM 42.6731 -121.4847 North 248 285 22,100 -1,082 Descending Seattle Center
Thu 04:32:49 PM 42.7614 -121.4653 North 265 305 21,000 -934 Descending Seattle Center
Thu 04:33:50 PM 42.8344 -121.4539 North 264 304 20,200 -787 Descending Seattle Center
Thu 04:34:51 PM 42.9078 -121.4369 10° North 266 306 19,400 -885 Descending Seattle Center
Thu 04:35:52 PM 42.9806 -121.4231 North 265 305 18,400 -1,024 Descending Seattle Center
Thu 04:36:54 PM 43.0558 -121.4075 North 272 313 17,300 -976 Descending Seattle Center
Thu 04:37:55 PM 43.1303 -121.3919 North 271 312 16,400 -689 Descending Seattle Center
Thu 04:38:56 PM 43.2022 -121.3758 North 262 302 15,900 -443 Descending Seattle Center
Thu 04:39:57 PM 43.2733 -121.3617 North 258 297 15,500 -443 Descending Seattle Center
Thu 04:40:58 PM 43.3436 -121.3469 North 256 295 15,000 -443 Descending Seattle Center
Thu 04:41:59 PM 43.4142 -121.3325 North 257 296 14,600 -393 Descending Seattle Center
Thu 04:43:00 PM 43.4842 -121.3167 North 255 293 14,200 -541 Descending Seattle Center
Thu 04:44:01 PM 43.5658 -121.2764 20° North 263 303 13,500 -732 Descending Seattle Center
Thu 04:45:03 PM 43.6364 -121.2417 20° North 269 310 12,700 -927 Descending Seattle Center
Thu 04:46:04 PM 43.7081 -121.2094 18° North 270 311 11,600 -934 Descending Seattle Center
Thu 04:47:05 PM 43.7828 -121.1750 18° North 281 323 10,800 -787 Descending Seattle Center
Thu 04:48:06 PM 43.8567 -121.1433 17° North 280 322 10,000 -393 Descending Seattle Center
Thu 04:49:07 PM 43.9281 -121.1111 18° North 275 316 10,000 -689 Level Seattle Center
Thu 04:51:09 PM 44.0694 -121.0494 17° North 269 310 7,900 -1,033 Descending Seattle Center

Login

Don't have an account? Register now (free) for customized features, flight alerts, and more!